Time,TemperatureF,DewpointF,PressureIn,WindDirection,WindDirectionDegrees,WindSpeedMPH,WindSpeedGustMPH,Humidity,HourlyPrecipIn,Conditions,Clouds,dailyrainin,SoftwareType,DateUTC
2013-02-04 00:10:00,18.8,11.9,29.61,NNW,331,4.0,4.0,74,0.00,,,0.00,Wunderground v.1.15,2013-02-04 05:10:00,
2013-02-04 00:20:00,18.6,11.7,29.61,WNW,292,4.0,10.0,74,0.00,,,0.00,Wunderground v.1.15,2013-02-04 05:20:00,
2013-02-04 00:30:00,18.4,11.5,29.61,NW,310,6.0,6.0,74,0.00,,,0.00,Wunderground v.1.15,2013-02-04 05:30:00,
2013-02-04 00:40:00,18.3,11.7,29.60,NW,316,5.0,9.0,75,0.00,,,0.00,Wunderground v.1.15,2013-02-04 05:40:00,
2013-02-04 00:50:00,18.1,11.5,29.60,North,354,5.0,5.0,75,0.00,,,0.00,Wunderground v.1.15,2013-02-04 05:50:00,
2013-02-04 01:00:00,18.1,11.5,29.60,NW,326,4.0,4.0,75,0.00,,,0.00,Wunderground v.1.15,2013-02-04 06:00:00,
2013-02-04 01:10:00,18.1,11.5,29.60,WNW,283,4.0,5.0,75,0.00,,,0.00,Wunderground v.1.15,2013-02-04 06:10:00,
2013-02-04 01:20:00,18.0,11.4,29.59,WNW,287,4.0,4.0,75,0.00,,,0.00,Wunderground v.1.15,2013-02-04 06:20:00,
2013-02-04 01:30:00,18.0,11.4,29.59,NW,320,5.0,5.0,75,0.00,,,0.00,Wunderground v.1.15,2013-02-04 06:30:00,
2013-02-04 01:40:00,18.0,11.4,29.60,NNW,329,3.0,3.0,75,0.00,,,0.00,Wunderground v.1.15,2013-02-04 06:40:00,
2013-02-04 01:50:00,18.0,11.4,29.61,WNW,291,4.0,4.0,75,0.00,,,0.00,Wunderground v.1.15,2013-02-04 06:50:00,
2013-02-04 02:00:00,18.0,11.7,29.61,WNW,295,4.0,5.0,76,0.00,,,0.00,Wunderground v.1.15,2013-02-04 07:00:00,
2013-02-04 02:10:00,18.0,11.4,29.60,WNW,283,5.0,6.0,75,0.00,,,0.00,Wunderground v.1.15,2013-02-04 07:10:00,
2013-02-04 02:20:00,18.0,11.4,29.60,WNW,288,6.0,6.0,75,0.00,,,0.00,Wunderground v.1.15,2013-02-04 07:20:00,
2013-02-04 02:30:00,18.0,11.4,29.60,West,276,5.0,5.0,75,0.00,,,0.00,Wunderground v.1.15,2013-02-04 07:30:00,
2013-02-04 02:40:00,17.8,11.2,29.59,WNW,282,4.0,4.0,75,0.00,,,0.00,Wunderground v.1.15,2013-02-04 07:40:00,
2013-02-04 02:50:00,17.8,11.2,29.59,NNW,334,4.0,4.0,75,0.00,,,0.00,Wunderground v.1.15,2013-02-04 07:50:00,
2013-02-04 03:00:00,17.8,10.9,29.59,NW,314,4.0,4.0,74,0.00,,,0.00,Wunderground v.1.15,2013-02-04 08:00:00,
2013-02-04 03:10:00,17.7,10.8,29.58,WNW,294,3.0,7.0,74,0.00,,,0.00,Wunderground v.1.15,2013-02-04 08:10:00,
2013-02-04 03:20:00,17.7,10.8,29.58,SW,231,5.0,10.0,74,0.00,,,0.00,Wunderground v.1.15,2013-02-04 08:20:00,
2013-02-04 03:30:00,17.5,10.6,29.58,WNW,299,6.0,6.0,74,0.00,,,0.00,Wunderground v.1.15,2013-02-04 08:30:00,
2013-02-04 03:40:00,17.2,10.6,29.57,WNW,300,6.0,7.0,75,0.00,,,0.00,Wunderground v.1.15,2013-02-04 08:40:00,
2013-02-04 03:50:00,17.2,10.3,29.56,WNW,293,8.0,12.0,74,0.00,,,0.00,Wunderground v.1.15,2013-02-04 08:50:00,
2013-02-04 04:00:00,16.9,10.3,29.56,WNW,283,9.0,11.0,75,0.00,,,0.00,Wunderground v.1.15,2013-02-04 09:00:00,
2013-02-04 04:10:00,16.5,8.7,29.56,West,269,10.0,13.0,71,0.00,,,0.00,Wunderground v.1.15,2013-02-04 09:10:00,
2013-02-04 04:20:00,16.5,10.0,29.57,West,272,10.0,10.0,75,0.00,,,0.00,Wunderground v.1.15,2013-02-04 09:20:00,
2013-02-04 04:30:00,16.4,9.9,29.57,WNW,289,9.0,9.0,75,0.00,,,0.00,Wunderground v.1.15,2013-02-04 09:30:00,
2013-02-04 04:40:00,16.1,9.6,29.57,West,280,6.0,6.0,75,0.00,,,0.00,Wunderground v.1.15,2013-02-04 09:40:00,
2013-02-04 04:50:00,15.9,9.1,29.57,West,267,7.0,7.0,74,0.00,,,0.00,Wunderground v.1.15,2013-02-04 09:50:00,
2013-02-04 05:00:00,15.7,8.6,29.57,West,271,7.0,7.0,73,0.00,,,0.00,Wunderground v.1.15,2013-02-04 10:00:00,
2013-02-04 05:10:00,15.9,8.8,29.57,WSW,257,7.0,12.0,73,0.00,,,0.00,Wunderground v.1.15,2013-02-04 10:10:00,
2013-02-04 05:20:00,16.1,8.3,29.57,WNW,290,8.0,8.0,71,0.00,,,0.00,Wunderground v.1.15,2013-02-04 10:20:00,
2013-02-04 05:30:00,16.1,8.3,29.57,West,262,9.0,9.0,71,0.00,,,0.00,Wunderground v.1.15,2013-02-04 10:30:00,
2013-02-04 05:40:00,15.9,8.2,29.56,West,280,10.0,10.0,71,0.00,,,0.00,Wunderground v.1.15,2013-02-04 10:40:00,
2013-02-04 05:50:00,15.7,8.0,29.56,West,281,8.0,9.0,71,0.00,,,0.00,Wunderground v.1.15,2013-02-04 10:50:00,
2013-02-04 06:00:00,15.6,7.9,29.56,West,273,9.0,9.0,71,0.00,,,0.00,Wunderground v.1.15,2013-02-04 11:00:00,
2013-02-04 06:10:00,15.2,7.8,29.56,West,277,8.0,9.0,72,0.00,,,0.00,Wunderground v.1.15,2013-02-04 11:10:00,
2013-02-04 06:20:00,14.9,7.8,29.57,West,273,6.0,6.0,73,0.00,,,0.00,Wunderground v.1.15,2013-02-04 11:20:00,
2013-02-04 06:30:00,14.6,7.5,29.57,West,275,4.0,5.0,73,0.00,,,0.00,Wunderground v.1.15,2013-02-04 11:30:00,
2013-02-04 06:40:00,14.1,7.3,29.57,West,266,5.0,6.0,74,0.00,,,0.00,Wunderground v.1.15,2013-02-04 11:40:00,
2013-02-04 06:50:00,14.0,7.2,29.57,West,264,5.0,5.0,74,0.00,,,0.00,Wunderground v.1.15,2013-02-04 11:50:00,
2013-02-04 07:00:00,14.0,7.2,29.57,WSW,252,5.0,5.0,74,0.00,,,0.00,Wunderground v.1.15,2013-02-04 12:00:00,
2013-02-04 07:10:00,14.0,7.2,29.56,WSW,244,6.0,6.0,74,0.00,,,0.00,Wunderground v.1.15,2013-02-04 12:10:00,
2013-02-04 07:20:00,14.3,7.2,29.57,West,263,6.0,6.0,73,0.00,,,0.00,Wunderground v.1.15,2013-02-04 12:20:00,
2013-02-04 07:30:00,14.8,7.4,29.57,West,274,5.0,5.0,72,0.00,,,0.00,Wunderground v.1.15,2013-02-04 12:30:00,
2013-02-04 07:40:00,15.1,7.1,29.57,WNW,288,5.0,5.0,70,0.00,,,0.00,Wunderground v.1.15,2013-02-04 12:40:00,
2013-02-04 07:50:00,15.6,7.2,29.57,West,271,6.0,7.0,69,0.00,,,0.00,Wunderground v.1.15,2013-02-04 12:50:00,
2013-02-04 08:00:00,16.1,7.4,29.57,West,275,6.0,6.0,68,0.00,,,0.00,Wunderground v.1.15,2013-02-04 13:00:00,
2013-02-04 08:10:00,16.4,7.3,29.57,West,266,8.0,9.0,67,0.00,,,0.00,Wunderground v.1.15,2013-02-04 13:10:00,
2013-02-04 08:20:00,16.7,7.6,29.57,West,268,8.0,10.0,67,0.00,,,0.00,Wunderground v.1.15,2013-02-04 13:20:00,
2013-02-04 08:30:00,17.0,7.6,29.57,West,266,10.0,10.0,66,0.00,,,0.00,Wunderground v.1.15,2013-02-04 13:30:00,
2013-02-04 08:40:00,17.8,8.0,29.58,WNW,285,8.0,8.0,65,0.00,,,0.00,Wunderground v.1.15,2013-02-04 13:40:00,
2013-02-04 08:50:00,18.4,7.5,29.57,NW,312,9.0,9.0,62,0.00,,,0.00,Wunderground v.1.15,2013-02-04 13:50:00,
2013-02-04 09:00:00,19.1,7.8,29.57,SW,221,10.0,13.0,61,0.00,,,0.00,Wunderground v.1.15,2013-02-04 14:00:00,
2013-02-04 09:10:00,19.5,7.5,29.57,West,279,12.0,12.0,59,0.00,,,0.00,Wunderground v.1.15,2013-02-04 14:10:00,
2013-02-04 09:20:00,20.0,7.6,29.57,WSW,255,12.0,12.0,58,0.00,,,0.00,Wunderground v.1.15,2013-02-04 14:20:00,
2013-02-04 09:30:00,20.5,7.7,29.57,WNW,297,12.0,12.0,57,0.00,,,0.00,Wunderground v.1.15,2013-02-04 14:30:00,
2013-02-04 09:40:00,21.0,7.3,29.56,WNW,293,12.0,12.0,55,0.00,,,0.00,Wunderground v.1.15,2013-02-04 14:40:00,
2013-02-04 09:50:00,21.6,7.5,29.56,WSW,250,11.0,17.0,54,0.00,,,0.00,Wunderground v.1.15,2013-02-04 14:50:00,
2013-02-04 10:00:00,21.8,7.7,29.56,WNW,282,13.0,13.0,54,0.00,,,0.00,Wunderground v.1.15,2013-02-04 15:00:00,
2013-02-04 10:10:00,22.1,7.1,29.55,West,265,14.0,14.0,52,0.00,,,0.00,Wunderground v.1.15,2013-02-04 15:10:00,
2013-02-04 10:20:00,22.7,7.7,29.55,WSW,255,12.0,13.0,52,0.00,,,0.00,Wunderground v.1.15,2013-02-04 15:20:00,
2013-02-04 10:30:00,23.3,7.4,29.55,West,274,13.0,13.0,50,0.00,,,0.00,Wunderground v.1.15,2013-02-04 15:30:00,
2013-02-04 10:40:00,23.5,6.2,29.55,West,278,12.0,12.0,47,0.00,,,0.00,Wunderground v.1.15,2013-02-04 15:40:00,
2013-02-04 10:50:00,24.4,7.0,29.54,West,274,12.0,13.0,47,0.00,,,0.00,Wunderground v.1.15,2013-02-04 15:50:00,
2013-02-04 11:00:00,23.6,6.3,29.54,West,259,16.0,16.0,47,0.00,,,0.00,Wunderground v.1.15,2013-02-04 16:00:00,
2013-02-04 11:10:00,23.6,5.8,29.55,West,269,15.0,15.0,46,0.00,,,0.00,Wunderground v.1.15,2013-02-04 16:10:00,
2013-02-04 11:20:00,23.6,5.3,29.54,WSW,255,16.0,16.0,45,0.00,,,0.00,Wunderground v.1.15,2013-02-04 16:20:00,
2013-02-04 11:30:00,23.9,5.6,29.54,WSW,249,18.0,18.0,45,0.00,,,0.00,Wunderground v.1.15,2013-02-04 16:30:00,
2013-02-04 11:40:00,23.5,4.8,29.54,WSW,243,16.0,16.0,44,0.00,,,0.00,Wunderground v.1.15,2013-02-04 16:40:00,
2013-02-04 11:50:00,23.2,5.4,29.54,WSW,256,17.0,19.0,46,0.00,,,0.00,Wunderground v.1.15,2013-02-04 16:50:00,
2013-02-04 12:00:00,23.6,4.8,29.54,West,271,16.0,16.0,44,0.00,,,0.00,Wunderground v.1.15,2013-02-04 17:00:00,
2013-02-04 12:10:00,24.5,3.6,29.54,West,264,15.0,15.0,40,0.00,,,0.00,Wunderground v.1.15,2013-02-04 17:10:00,
2013-02-04 12:20:00,24.4,3.5,29.53,West,268,15.0,18.0,40,0.00,,,0.00,Wunderground v.1.15,2013-02-04 17:20:00,
2013-02-04 12:30:00,24.4,4.0,29.53,West,270,14.0,14.0,41,0.00,,,0.00,Wunderground v.1.15,2013-02-04 17:30:00,
2013-02-04 12:40:00,24.2,4.4,29.53,WSW,257,16.0,16.0,42,0.00,,,0.00,Wunderground v.1.15,2013-02-04 17:40:00,
2013-02-04 12:50:00,23.8,2.4,29.54,WNW,282,17.0,19.0,39,0.00,,,0.00,Wunderground v.1.15,2013-02-04 17:50:00,
2013-02-04 13:00:00,24.4,3.5,29.54,WNW,293,16.0,16.0,40,0.00,,,0.00,Wunderground v.1.15,2013-02-04 18:00:00,
2013-02-04 13:10:00,24.4,2.4,29.53,West,274,16.0,16.0,38,0.00,,,0.00,Wunderground v.1.15,2013-02-04 18:10:00,
2013-02-04 13:20:00,24.4,1.2,29.53,WSW,248,17.0,17.0,36,0.00,,,0.00,Wunderground v.1.15,2013-02-04 18:20:00,
2013-02-04 13:30:00,23.6,1.1,29.53,West,280,17.0,17.0,37,0.00,,,0.00,Wunderground v.1.15,2013-02-04 18:30:00,
2013-02-04 13:40:00,23.6,2.2,29.54,West,276,16.0,17.0,39,0.00,,,0.00,Wunderground v.1.15,2013-02-04 18:40:00,
2013-02-04 13:50:00,23.3,2.5,29.55,West,266,16.0,16.0,40,0.00,,,0.00,Wunderground v.1.15,2013-02-04 18:50:00,
2013-02-04 14:00:00,24.2,3.9,29.55,WSW,243,14.0,15.0,41,0.00,,,0.00,Wunderground v.1.15,2013-02-04 19:00:00,
2013-02-04 14:10:00,24.2,3.9,29.55,WSW,255,13.0,15.0,41,0.00,,,0.00,Wunderground v.1.15,2013-02-04 19:10:00,
2013-02-04 14:20:00,23.5,4.2,29.55,WNW,283,14.0,16.0,43,0.00,,,0.00,Wunderground v.1.15,2013-02-04 19:20:00,
2013-02-04 14:30:00,22.7,3.0,29.55,West,262,15.0,17.0,42,0.00,,,0.00,Wunderground v.1.15,2013-02-04 19:30:00,
2013-02-04 14:40:00,22.4,5.2,29.56,West,263,15.0,18.0,47,0.00,,,0.00,Wunderground v.1.15,2013-02-04 19:40:00,
2013-02-04 14:50:00,22.4,1.7,29.57,West,259,14.0,14.0,40,0.00,,,0.00,Wunderground v.1.15,2013-02-04 19:50:00,
2013-02-04 15:00:00,22.4,0.0,29.57,WNW,285,18.0,19.0,37,0.00,,,0.00,Wunderground v.1.15,2013-02-04 20:00:00,
2013-02-04 15:10:00,22.7,1.4,29.58,West,266,15.0,15.0,39,0.00,,,0.00,Wunderground v.1.15,2013-02-04 20:10:00,
2013-02-04 15:20:00,23.0,2.8,29.58,West,276,14.0,14.0,41,0.00,,,0.00,Wunderground v.1.15,2013-02-04 20:20:00,
2013-02-04 15:30:00,22.7,0.3,29.58,WSW,255,14.0,16.0,37,0.00,,,0.00,Wunderground v.1.15,2013-02-04 20:30:00,
2013-02-04 15:40:00,22.1,0.3,29.58,WNW,282,17.0,17.0,38,0.00,,,0.00,Wunderground v.1.15,2013-02-04 20:40:00,
2013-02-04 15:50:00,22.2,0.4,29.59,WSW,255,15.0,18.0,38,0.00,,,0.00,Wunderground v.1.15,2013-02-04 20:50:00,
2013-02-04 16:00:00,22.4,1.1,29.59,SW,226,15.0,15.0,39,0.00,,,0.00,Wunderground v.1.15,2013-02-04 21:00:00,
2013-02-04 16:10:00,22.2,1.0,29.59,WSW,239,16.0,16.0,39,0.00,,,0.00,Wunderground v.1.15,2013-02-04 21:10:00,
2013-02-04 16:20:00,22.1,1.4,29.60,WSW,243,13.0,13.0,40,0.00,,,0.00,Wunderground v.1.15,2013-02-04 21:20:00,
2013-02-04 16:30:00,21.9,0.7,29.60,WSW,250,14.0,14.0,39,0.00,,,0.00,Wunderground v.1.15,2013-02-04 21:30:00,
2013-02-04 16:40:00,21.8,0.0,29.59,WSW,255,14.0,14.0,38,0.00,,,0.00,Wunderground v.1.15,2013-02-04 21:40:00,
2013-02-04 16:50:00,21.4,0.2,29.60,WSW,258,13.0,21.0,39,0.00,,,0.00,Wunderground v.1.15,2013-02-04 21:50:00,
2013-02-04 17:00:00,21.1,0.0,29.60,West,260,15.0,15.0,39,0.00,,,0.00,Wunderground v.1.15,2013-02-04 22:00:00,
2013-02-04 17:10:00,20.8,0.2,29.61,West,267,14.0,14.0,40,0.00,,,0.00,Wunderground v.1.15,2013-02-04 22:10:00,
2013-02-04 17:20:00,20.8,0.2,29.61,WNW,288,15.0,19.0,40,0.00,,,0.00,Wunderground v.1.15,2013-02-04 22:20:00,
2013-02-04 17:30:00,20.5,1.0,29.61,WSW,249,13.0,14.0,42,0.00,,,0.00,Wunderground v.1.15,2013-02-04 22:30:00,
2013-02-04 17:40:00,20.5,0.5,29.62,West,262,13.0,15.0,41,0.00,,,0.00,Wunderground v.1.15,2013-02-04 22:40:00,
2013-02-04 17:50:00,20.3,0.8,29.63,West,269,13.0,13.0,42,0.00,,,0.00,Wunderground v.1.15,2013-02-04 22:50:00,
2013-02-04 18:00:00,20.2,1.2,29.63,West,260,11.0,11.0,43,0.00,,,0.00,Wunderground v.1.15,2013-02-04 23:00:00,
2013-02-04 18:10:00,19.9,1.9,29.64,West,269,12.0,16.0,45,0.00,,,0.00,Wunderground v.1.15,2013-02-04 23:10:00,
2013-02-04 18:20:00,19.4,2.0,29.65,West,265,10.0,13.0,46,0.00,,,0.00,Wunderground v.1.15,2013-02-04 23:20:00,
2013-02-04 18:30:00,19.1,0.7,29.65,West,271,9.0,12.0,44,0.00,,,0.00,Wunderground v.1.15,2013-02-04 23:30:00,
2013-02-04 18:40:00,19.2,-0.7,29.65,WNW,283,11.0,11.0,41,0.00,,,0.00,Wunderground v.1.15,2013-02-04 23:40:00,
2013-02-04 18:50:00,19.1,-1.3,29.66,West,268,11.0,11.0,40,0.00,,,0.00,Wunderground v.1.15,2013-02-04 23:50:00,
2013-02-04 19:00:00,18.8,-1.1,29.66,West,278,8.0,9.0,41,0.00,,,0.00,Wunderground v.1.15,2013-02-05 00:00:00,
2013-02-04 19:10:00,18.4,-0.9,29.66,WSW,250,8.0,11.0,42,0.00,,,0.00,Wunderground v.1.15,2013-02-05 00:10:00,
2013-02-04 19:20:00,18.3,-0.5,29.66,West,273,11.0,11.0,43,0.00,,,0.00,Wunderground v.1.15,2013-02-05 00:20:00,
2013-02-04 19:30:00,18.1,-0.2,29.66,WSW,258,10.0,10.0,44,0.00,,,0.00,Wunderground v.1.15,2013-02-05 00:30:00,
2013-02-04 19:40:00,17.8,0.0,29.67,West,262,9.0,9.0,45,0.00,,,0.00,Wunderground v.1.15,2013-02-05 00:40:00,
2013-02-04 19:50:00,17.8,0.0,29.68,West,262,11.0,11.0,45,0.00,,,0.00,Wunderground v.1.15,2013-02-05 00:50:00,
2013-02-04 20:00:00,17.5,0.2,29.68,West,269,8.0,16.0,46,0.00,,,0.00,Wunderground v.1.15,2013-02-05 01:00:00,
2013-02-04 20:10:00,17.3,0.5,29.68,West,265,10.0,10.0,47,0.00,,,0.00,Wunderground v.1.15,2013-02-05 01:10:00,
2013-02-04 20:20:00,17.0,0.2,29.69,West,271,9.0,13.0,47,0.00,,,0.00,Wunderground v.1.15,2013-02-05 01:20:00,
2013-02-04 20:30:00,17.0,-0.3,29.69,West,278,10.0,10.0,46,0.00,,,0.00,Wunderground v.1.15,2013-02-05 01:30:00,
2013-02-04 20:40:00,16.7,-0.5,29.69,West,262,9.0,9.0,46,0.00,,,0.00,Wunderground v.1.15,2013-02-05 01:40:00,
2013-02-04 20:50:00,16.4,-1.7,29.70,West,280,9.0,13.0,44,0.00,,,0.00,Wunderground v.1.15,2013-02-05 01:50:00,
2013-02-04 21:00:00,16.1,-2.5,29.70,West,259,10.0,11.0,43,0.00,,,0.00,Wunderground v.1.15,2013-02-05 02:00:00,
2013-02-04 21:10:00,15.7,-2.9,29.71,West,281,9.0,10.0,43,0.00,,,0.00,Wunderground v.1.15,2013-02-05 02:10:00,
2013-02-04 21:20:00,15.4,-4.1,29.71,West,271,11.0,11.0,41,0.00,,,0.00,Wunderground v.1.15,2013-02-05 02:20:00,
2013-02-04 21:30:00,15.1,-5.5,29.71,West,269,11.0,14.0,39,0.00,,,0.00,Wunderground v.1.15,2013-02-05 02:30:00,
2013-02-04 21:40:00,14.9,-6.7,29.72,West,262,12.0,12.0,37,0.00,,,0.00,Wunderground v.1.15,2013-02-05 02:40:00,
2013-02-04 21:50:00,14.6,-8.7,29.72,West,265,11.0,11.0,34,0.00,,,0.00,Wunderground v.1.15,2013-02-05 02:50:00,
2013-02-04 22:00:00,14.3,-9.6,29.72,WNW,282,11.0,13.0,33,0.00,,,0.00,Wunderground v.1.15,2013-02-05 03:00:00,
2013-02-04 22:10:00,14.1,-9.8,29.73,West,259,13.0,14.0,33,0.00,,,0.00,Wunderground v.1.15,2013-02-05 03:10:00,
2013-02-04 22:20:00,14.0,-10.5,29.74,West,278,13.0,15.0,32,0.00,,,0.00,Wunderground v.1.15,2013-02-05 03:20:00,
2013-02-04 22:30:00,13.8,-10.7,29.74,West,276,13.0,13.0,32,0.00,,,0.00,Wunderground v.1.15,2013-02-05 03:30:00,
2013-02-04 22:40:00,13.8,-10.1,29.74,WNW,295,14.0,14.0,33,0.00,,,0.00,Wunderground v.1.15,2013-02-05 03:40:00,
2013-02-04 22:50:00,13.6,-11.5,29.74,WSW,240,13.0,13.0,31,0.00,,,0.00,Wunderground v.1.15,2013-02-05 03:50:00,
2013-02-04 23:00:00,13.5,-10.9,29.74,WSW,248,15.0,15.0,32,0.00,,,0.00,Wunderground v.1.15,2013-02-05 04:00:00,
2013-02-04 23:10:00,13.1,-11.3,29.75,West,277,11.0,11.0,32,0.00,,,0.00,Wunderground v.1.15,2013-02-05 04:10:00,
2013-02-04 23:20:00,12.9,-10.3,29.76,West,276,12.0,12.0,34,0.00,,,0.00,Wunderground v.1.15,2013-02-05 04:20:00,
2013-02-04 23:30:00,12.8,-10.9,29.76,West,271,12.0,12.0,33,0.00,,,0.00,Wunderground v.1.15,2013-02-05 04:30:00,
2013-02-04 23:40:00,12.6,-11.1,29.76,West,269,13.0,16.0,33,0.00,,,0.00,Wunderground v.1.15,2013-02-05 04:40:00,
2013-02-04 23:50:00,12.4,-10.1,29.76,SW,231,9.0,9.0,35,0.00,,,0.00,Wunderground v.1.15,2013-02-05 04:50:00,